sensor_id;sensor_type;location;lat;lon;timestamp;pressure;altitude;pressure_sealevel;temperature;humidity
26859;BME280;14429;48.346;16.338;2023-01-26T00:02:18;100477.22;;;8.78;59.17
26859;BME280;14429;48.346;16.338;2023-01-26T00:04:45;100475.28;;;9.48;57.96
26859;BME280;14429;48.346;16.338;2023-01-26T00:07:10;100462.41;;;9.89;56.53
26859;BME280;14429;48.346;16.338;2023-01-26T00:09:35;100473.47;;;10.14;55.69
26859;BME280;14429;48.346;16.338;2023-01-26T00:12:01;100462.13;;;10.25;54.78
26859;BME280;14429;48.346;16.338;2023-01-26T00:14:26;100454.44;;;10.04;54.66
26859;BME280;14429;48.346;16.338;2023-01-26T00:16:52;100447.44;;;9.87;54.68
26859;BME280;14429;48.346;16.338;2023-01-26T00:19:17;100439.78;;;9.81;54.57
26859;BME280;14429;48.346;16.338;2023-01-26T00:21:44;100445.13;;;9.64;54.88
26859;BME280;14429;48.346;16.338;2023-01-26T00:24:09;100445.00;;;9.34;53.80
26859;BME280;14429;48.346;16.338;2023-01-26T00:26:35;100438.78;;;9.18;54.44
26859;BME280;14429;48.346;16.338;2023-01-26T00:29:00;100446.38;;;8.57;55.40
26859;BME280;14429;48.346;16.338;2023-01-26T00:31:26;100444.78;;;9.05;56.52
26859;BME280;14429;48.346;16.338;2023-01-26T00:33:52;100451.41;;;8.45;56.89
26859;BME280;14429;48.346;16.338;2023-01-26T00:36:18;100443.75;;;8.21;56.30
26859;BME280;14429;48.346;16.338;2023-01-26T00:38:45;100432.84;;;8.27;55.87
26859;BME280;14429;48.346;16.338;2023-01-26T00:41:11;100436.63;;;8.39;55.88
26859;BME280;14429;48.346;16.338;2023-01-26T00:43:36;100433.56;;;8.65;58.04
26859;BME280;14429;48.346;16.338;2023-01-26T00:46:02;100424.22;;;9.08;57.59
26859;BME280;14429;48.346;16.338;2023-01-26T00:48:27;100426.69;;;9.44;56.53
26859;BME280;14429;48.346;16.338;2023-01-26T00:50:53;100415.38;;;9.56;56.15
26859;BME280;14429;48.346;16.338;2023-01-26T00:53:18;100416.47;;;9.69;55.20
26859;BME280;14429;48.346;16.338;2023-01-26T00:55:45;100425.69;;;9.30;54.52
26859;BME280;14429;48.346;16.338;2023-01-26T00:58:10;100421.84;;;9.36;55.09
26859;BME280;14429;48.346;16.338;2023-01-26T01:00:37;100417.91;;;9.59;55.59
26859;BME280;14429;48.346;16.338;2023-01-26T01:03:03;100420.44;;;9.12;53.26
26859;BME280;14429;48.346;16.338;2023-01-26T01:05:30;100419.66;;;8.77;54.96
26859;BME280;14429;48.346;16.338;2023-01-26T01:07:56;100416.53;;;9.36;56.69
26859;BME280;14429;48.346;16.338;2023-01-26T01:10:22;100419.22;;;9.02;53.26
26859;BME280;14429;48.346;16.338;2023-01-26T01:12:49;100408.94;;;8.61;56.03
26859;BME280;14429;48.346;16.338;2023-01-26T01:15:14;100407.50;;;9.55;56.96
26859;BME280;14429;48.346;16.338;2023-01-26T01:17:40;100407.34;;;9.58;55.23
26859;BME280;14429;48.346;16.338;2023-01-26T01:20:08;100410.16;;;9.38;56.15
26859;BME280;14429;48.346;16.338;2023-01-26T01:22:34;100401.16;;;9.57;55.51
26859;BME280;14429;48.346;16.338;2023-01-26T01:24:59;100412.69;;;9.73;55.20
26859;BME280;14429;48.346;16.338;2023-01-26T01:27:25;100404.34;;;9.96;54.49
26859;BME280;14429;48.346;16.338;2023-01-26T01:29:52;100396.63;;;9.91;53.63
26859;BME280;14429;48.346;16.338;2023-01-26T01:32:18;100403.47;;;9.63;53.37
26859;BME280;14429;48.346;16.338;2023-01-26T01:34:45;100401.19;;;9.72;54.48
26859;BME280;14429;48.346;16.338;2023-01-26T01:37:10;100400.75;;;10.12;54.31
26859;BME280;14429;48.346;16.338;2023-01-26T01:39:36;100393.06;;;9.59;53.91
26859;BME280;14429;48.346;16.338;2023-01-26T01:42:03;100395.00;;;10.04;54.92
26859;BME280;14429;48.346;16.338;2023-01-26T01:44:29;100386.47;;;9.97;52.29
26859;BME280;14429;48.346;16.338;2023-01-26T01:47:00;100388.69;;;9.90;51.86
26859;BME280;14429;48.346;16.338;2023-01-26T01:49:29;100393.69;;;10.26;54.48
26859;BME280;14429;48.346;16.338;2023-01-26T01:51:59;100384.75;;;10.27;53.65
26859;BME280;14429;48.346;16.338;2023-01-26T01:54:30;100373.59;;;10.36;53.43
26859;BME280;14429;48.346;16.338;2023-01-26T01:56:59;100382.28;;;10.39;53.15
26859;BME280;14429;48.346;16.338;2023-01-26T01:59:26;100374.66;;;10.62;52.47
26859;BME280;14429;48.346;16.338;2023-01-26T02:01:54;100374.06;;;10.57;52.42
26859;BME280;14429;48.346;16.338;2023-01-26T02:04:22;100369.34;;;10.62;52.78
26859;BME280;14429;48.346;16.338;2023-01-26T02:06:50;100364.75;;;10.64;52.82
26859;BME280;14429;48.346;16.338;2023-01-26T02:09:19;100368.44;;;10.77;52.08
26859;BME280;14429;48.346;16.338;2023-01-26T02:11:46;100352.78;;;10.71;52.07
26859;BME280;14429;48.346;16.338;2023-01-26T02:14:13;100353.66;;;10.12;50.12
26859;BME280;14429;48.346;16.338;2023-01-26T02:16:39;100355.94;;;9.41;51.99
26859;BME280;14429;48.346;16.338;2023-01-26T02:19:11;100355.56;;;8.49;56.58
26859;BME280;14429;48.346;16.338;2023-01-26T02:21:41;100353.06;;;8.80;57.34
26859;BME280;14429;48.346;16.338;2023-01-26T02:24:12;100346.00;;;9.44;56.50
26859;BME280;14429;48.346;16.338;2023-01-26T02:26:44;100338.53;;;9.97;54.84
26859;BME280;14429;48.346;16.338;2023-01-26T02:29:10;100344.44;;;9.40;53.50
26859;BME280;14429;48.346;16.338;2023-01-26T02:31:36;100336.53;;;10.01;54.29
26859;BME280;14429;48.346;16.338;2023-01-26T02:34:02;100320.47;;;10.33;53.01
26859;BME280;14429;48.346;16.338;2023-01-26T02:36:29;100322.31;;;10.46;52.65
26859;BME280;14429;48.346;16.338;2023-01-26T02:39:03;100318.09;;;10.42;52.46
26859;BME280;14429;48.346;16.338;2023-01-26T02:41:34;100317.66;;;10.49;53.01
26859;BME280;14429;48.346;16.338;2023-01-26T02:44:01;100310.16;;;10.56;52.56
26859;BME280;14429;48.346;16.338;2023-01-26T02:46:27;100309.88;;;10.60;52.50
26859;BME280;14429;48.346;16.338;2023-01-26T02:48:53;100305.69;;;10.56;52.71
26859;BME280;14429;48.346;16.338;2023-01-26T02:51:18;100297.28;;;10.49;53.34
26859;BME280;14429;48.346;16.338;2023-01-26T02:53:43;100303.41;;;10.50;53.47
26859;BME280;14429;48.346;16.338;2023-01-26T02:56:09;100292.00;;;10.62;53.10
26859;BME280;14429;48.346;16.338;2023-01-26T02:58:34;100298.88;;;10.66;52.68
26859;BME280;14429;48.346;16.338;2023-01-26T03:01:01;100300.34;;;10.12;52.34
26859;BME280;14429;48.346;16.338;2023-01-26T03:03:28;100303.38;;;10.06;53.32
26859;BME280;14429;48.346;16.338;2023-01-26T03:05:53;100299.44;;;10.42;52.77
26859;BME280;14429;48.346;16.338;2023-01-26T03:08:19;100300.97;;;10.61;51.85
26859;BME280;14429;48.346;16.338;2023-01-26T03:10:44;100306.31;;;10.61;51.78
26859;BME280;14429;48.346;16.338;2023-01-26T03:13:09;100299.31;;;10.59;52.16
26859;BME280;14429;48.346;16.338;2023-01-26T03:15:35;100292.97;;;10.46;52.59
26859;BME280;14429;48.346;16.338;2023-01-26T03:18:03;100289.69;;;10.56;52.50
26859;BME280;14429;48.346;16.338;2023-01-26T03:20:29;100299.00;;;10.49;52.61
26859;BME280;14429;48.346;16.338;2023-01-26T03:22:54;100301.66;;;10.49;52.71
26859;BME280;14429;48.346;16.338;2023-01-26T03:25:20;100294.13;;;10.42;53.28
26859;BME280;14429;48.346;16.338;2023-01-26T03:27:46;100289.88;;;10.53;53.18
26859;BME280;14429;48.346;16.338;2023-01-26T03:30:14;100288.72;;;10.57;53.08
26859;BME280;14429;48.346;16.338;2023-01-26T03:32:40;100289.34;;;10.62;52.78
26859;BME280;14429;48.346;16.338;2023-01-26T03:35:08;100283.16;;;10.62;52.31
26859;BME280;14429;48.346;16.338;2023-01-26T03:37:33;100285.44;;;10.68;51.64
26859;BME280;14429;48.346;16.338;2023-01-26T03:39:59;100284.22;;;10.73;51.47
26859;BME280;14429;48.346;16.338;2023-01-26T03:42:25;100282.31;;;10.75;51.29
26859;BME280;14429;48.346;16.338;2023-01-26T03:44:50;100287.34;;;10.66;51.48
26859;BME280;14429;48.346;16.338;2023-01-26T03:47:16;100284.41;;;10.70;51.49
26859;BME280;14429;48.346;16.338;2023-01-26T03:49:41;100277.44;;;10.68;51.96
26859;BME280;14429;48.346;16.338;2023-01-26T03:52:08;100278.91;;;10.73;51.63
26859;BME280;14429;48.346;16.338;2023-01-26T03:54:33;100277.16;;;10.58;51.97
26859;BME280;14429;48.346;16.338;2023-01-26T03:56:59;100282.94;;;10.51;52.70
26859;BME280;14429;48.346;16.338;2023-01-26T03:59:24;100275.28;;;10.45;53.11
26859;BME280;14429;48.346;16.338;2023-01-26T04:01:49;100271.03;;;10.56;52.99
26859;BME280;14429;48.346;16.338;2023-01-26T04:04:15;100268.88;;;10.34;53.28
26859;BME280;14429;48.346;16.338;2023-01-26T04:06:42;100266.34;;;9.71;50.77
26859;BME280;14429;48.346;16.338;2023-01-26T04:09:09;100272.19;;;9.63;52.94
26859;BME280;14429;48.346;16.338;2023-01-26T04:11:34;100255.94;;;9.67;53.15
26859;BME280;14429;48.346;16.338;2023-01-26T04:14:00;100254.16;;;10.13;53.07
26859;BME280;14429;48.346;16.338;2023-01-26T04:16:25;100250.16;;;10.20;52.37
26859;BME280;14429;48.346;16.338;2023-01-26T04:18:51;100253.59;;;10.22;52.74
26859;BME280;14429;48.346;16.338;2023-01-26T04:21:16;100254.13;;;9.52;51.10
26859;BME280;14429;48.346;16.338;2023-01-26T04:23:42;100255.25;;;9.64;53.70
26859;BME280;14429;48.346;16.338;2023-01-26T04:26:08;100255.50;;;9.74;53.54
26859;BME280;14429;48.346;16.338;2023-01-26T04:28:34;100258.47;;;9.23;50.99
26859;BME280;14429;48.346;16.338;2023-01-26T04:30:59;100254.81;;;9.71;54.58
26859;BME280;14429;48.346;16.338;2023-01-26T04:33:25;100250.72;;;9.66;54.05
26859;BME280;14429;48.346;16.338;2023-01-26T04:35:50;100246.75;;;10.03;54.33
26859;BME280;14429;48.346;16.338;2023-01-26T04:38:15;100245.53;;;10.08;54.20
26859;BME280;14429;48.346;16.338;2023-01-26T04:40:41;100250.03;;;9.47;52.54
26859;BME280;14429;48.346;16.338;2023-01-26T04:43:08;100248.47;;;9.28;53.54
26859;BME280;14429;48.346;16.338;2023-01-26T04:45:33;100245.97;;;9.25;54.89
26859;BME280;14429;48.346;16.338;2023-01-26T04:47:59;100237.41;;;9.35;55.14
26859;BME280;14429;48.346;16.338;2023-01-26T04:50:25;100231.66;;;9.73;54.29
26859;BME280;14429;48.346;16.338;2023-01-26T04:52:50;100235.84;;;9.77;53.92
26859;BME280;14429;48.346;16.338;2023-01-26T04:55:16;100239.25;;;9.18;54.44
26859;BME280;14429;48.346;16.338;2023-01-26T04:57:41;100247.50;;;8.82;53.73
26859;BME280;14429;48.346;16.338;2023-01-26T05:00:09;100240.41;;;8.97;55.11
26859;BME280;14429;48.346;16.338;2023-01-26T05:02:35;100235.28;;;8.29;53.24
26859;BME280;14429;48.346;16.338;2023-01-26T05:05:00;100232.81;;;8.75;56.19
26859;BME280;14429;48.346;16.338;2023-01-26T05:07:26;100234.69;;;8.73;56.19
26859;BME280;14429;48.346;16.338;2023-01-26T05:09:51;100236.13;;;8.63;56.87
26859;BME280;14429;48.346;16.338;2023-01-26T05:12:17;100226.88;;;8.87;56.37
26859;BME280;14429;48.346;16.338;2023-01-26T05:14:42;100231.00;;;9.07;55.45
26859;BME280;14429;48.346;16.338;2023-01-26T05:17:09;100225.84;;;8.24;55.34
26859;BME280;14429;48.346;16.338;2023-01-26T05:19:34;100225.47;;;8.63;56.62
26859;BME280;14429;48.346;16.338;2023-01-26T05:21:59;100218.38;;;8.95;55.34
26859;BME280;14429;48.346;16.338;2023-01-26T05:24:25;100216.72;;;9.25;55.45
26859;BME280;14429;48.346;16.338;2023-01-26T05:26:50;100220.72;;;9.01;51.87
26859;BME280;14429;48.346;16.338;2023-01-26T05:29:16;100222.72;;;8.16;53.83
26859;BME280;14429;48.346;16.338;2023-01-26T05:31:41;100225.00;;;8.72;56.91
26859;BME280;14429;48.346;16.338;2023-01-26T05:34:08;100229.75;;;8.17;56.91
26859;BME280;14429;48.346;16.338;2023-01-26T05:36:33;100224.03;;;7.38;57.62
26859;BME280;14429;48.346;16.338;2023-01-26T05:38:59;100223.81;;;8.45;58.37
26859;BME280;14429;48.346;16.338;2023-01-26T05:41:24;100222.09;;;8.76;57.73
26859;BME280;14429;48.346;16.338;2023-01-26T05:43:49;100221.63;;;9.00;57.40
26859;BME280;14429;48.346;16.338;2023-01-26T05:46:15;100218.53;;;9.40;56.57
26859;BME280;14429;48.346;16.338;2023-01-26T05:48:40;100212.75;;;9.62;55.88
26859;BME280;14429;48.346;16.338;2023-01-26T05:51:07;100213.59;;;9.78;55.03
26859;BME280;14429;48.346;16.338;2023-01-26T05:53:32;100215.31;;;9.79;52.56
26859;BME280;14429;48.346;16.338;2023-01-26T05:55:58;100213.44;;;9.96;53.78
26859;BME280;14429;48.346;16.338;2023-01-26T05:58:23;100222.19;;;10.13;52.88
26859;BME280;14429;48.346;16.338;2023-01-26T06:00:49;100218.72;;;10.11;53.04
26859;BME280;14429;48.346;16.338;2023-01-26T06:03:14;100221.97;;;10.16;53.28
26859;BME280;14429;48.346;16.338;2023-01-26T06:05:39;100227.50;;;10.13;53.08
26859;BME280;14429;48.346;16.338;2023-01-26T06:08:06;100226.78;;;10.25;52.67
26859;BME280;14429;48.346;16.338;2023-01-26T06:10:32;100227.41;;;10.15;53.07
26859;BME280;14429;48.346;16.338;2023-01-26T06:12:58;100220.81;;;10.06;53.53
26859;BME280;14429;48.346;16.338;2023-01-26T06:15:24;100224.31;;;10.07;53.86
26859;BME280;14429;48.346;16.338;2023-01-26T06:17:49;100228.28;;;10.00;54.05
26859;BME280;14429;48.346;16.338;2023-01-26T06:20:15;100226.53;;;10.14;53.68
26859;BME280;14429;48.346;16.338;2023-01-26T06:22:40;100228.06;;;9.43;50.22
26859;BME280;14429;48.346;16.338;2023-01-26T06:25:08;100222.84;;;10.01;53.63
26859;BME280;14429;48.346;16.338;2023-01-26T06:27:33;100221.78;;;10.05;53.27
26859;BME280;14429;48.346;16.338;2023-01-26T06:29:59;100216.47;;;10.19;52.63
26859;BME280;14429;48.346;16.338;2023-01-26T06:32:24;100223.75;;;9.26;49.09
26859;BME280;14429;48.346;16.338;2023-01-26T06:34:50;100212.75;;;9.93;53.36
26859;BME280;14429;48.346;16.338;2023-01-26T06:37:15;100213.25;;;9.99;53.34
26859;BME280;14429;48.346;16.338;2023-01-26T06:39:40;100212.50;;;10.26;52.90
26859;BME280;14429;48.346;16.338;2023-01-26T06:42:07;100211.69;;;10.39;52.09
26859;BME280;14429;48.346;16.338;2023-01-26T06:44:33;100213.84;;;10.33;52.21
26859;BME280;14429;48.346;16.338;2023-01-26T06:46:58;100210.41;;;10.31;52.62
26859;BME280;14429;48.346;16.338;2023-01-26T06:49:24;100213.63;;;10.22;53.12
26859;BME280;14429;48.346;16.338;2023-01-26T06:51:55;100214.22;;;9.98;53.35
26859;BME280;14429;48.346;16.338;2023-01-26T06:54:21;100221.63;;;10.22;53.40
26859;BME280;14429;48.346;16.338;2023-01-26T06:56:47;100215.75;;;10.31;52.96
26859;BME280;14429;48.346;16.338;2023-01-26T06:59:13;100204.72;;;10.37;52.44
26859;BME280;14429;48.346;16.338;2023-01-26T07:01:41;100212.66;;;10.23;52.30
26859;BME280;14429;48.346;16.338;2023-01-26T07:04:07;100210.06;;;10.37;52.03
26859;BME280;14429;48.346;16.338;2023-01-26T07:06:32;100211.75;;;10.38;51.86
26859;BME280;14429;48.346;16.338;2023-01-26T07:08:58;100204.91;;;10.34;51.97
26859;BME280;14429;48.346;16.338;2023-01-26T07:11:23;100212.53;;;10.40;52.20
26859;BME280;14429;48.346;16.338;2023-01-26T07:13:49;100213.47;;;10.39;52.28
26859;BME280;14429;48.346;16.338;2023-01-26T07:16:17;100220.91;;;10.34;52.22
26859;BME280;14429;48.346;16.338;2023-01-26T07:18:43;100207.34;;;10.23;52.11
26859;BME280;14429;48.346;16.338;2023-01-26T07:21:11;100210.09;;;10.22;52.90
26859;BME280;14429;48.346;16.338;2023-01-26T07:23:37;100205.34;;;10.26;53.00
26859;BME280;14429;48.346;16.338;2023-01-26T07:26:03;100205.63;;;10.22;53.29
26859;BME280;14429;48.346;16.338;2023-01-26T07:28:28;100202.34;;;10.32;52.89
26859;BME280;14429;48.346;16.338;2023-01-26T07:30:56;100203.00;;;10.36;52.82
26859;BME280;14429;48.346;16.338;2023-01-26T07:33:23;100202.63;;;10.42;52.43
26859;BME280;14429;48.346;16.338;2023-01-26T07:35:51;100198.94;;;10.44;52.05
26859;BME280;14429;48.346;16.338;2023-01-26T07:38:17;100203.22;;;10.47;51.60
26859;BME280;14429;48.346;16.338;2023-01-26T07:40:42;100203.88;;;10.50;51.18
26859;BME280;14429;48.346;16.338;2023-01-26T07:43:07;100202.09;;;10.50;51.17
26859;BME280;14429;48.346;16.338;2023-01-26T07:45:33;100199.59;;;10.48;52.04
26859;BME280;14429;48.346;16.338;2023-01-26T07:48:00;100195.03;;;10.49;51.77
26859;BME280;14429;48.346;16.338;2023-01-26T07:50:26;100196.09;;;10.47;51.58
26859;BME280;14429;48.346;16.338;2023-01-26T07:52:52;100188.34;;;10.29;51.16
26859;BME280;14429;48.346;16.338;2023-01-26T07:55:17;100188.72;;;10.37;52.30
26859;BME280;14429;48.346;16.338;2023-01-26T07:57:43;100193.66;;;10.29;52.41
26859;BME280;14429;48.346;16.338;2023-01-26T08:00:09;100197.06;;;10.17;52.65
26859;BME280;14429;48.346;16.338;2023-01-26T08:02:35;100191.47;;;10.22;52.74
26859;BME280;14429;48.346;16.338;2023-01-26T08:05:00;100193.84;;;10.26;52.37
26859;BME280;14429;48.346;16.338;2023-01-26T08:07:27;100186.19;;;10.35;51.82
26859;BME280;14429;48.346;16.338;2023-01-26T08:09:52;100188.56;;;10.40;51.35
26859;BME280;14429;48.346;16.338;2023-01-26T08:12:18;100189.31;;;10.42;51.03
26859;BME280;14429;48.346;16.338;2023-01-26T08:14:43;100198.44;;;10.38;51.01
26859;BME280;14429;48.346;16.338;2023-01-26T08:17:09;100194.41;;;10.31;51.37
26859;BME280;14429;48.346;16.338;2023-01-26T08:19:34;100190.81;;;10.32;51.71
26859;BME280;14429;48.346;16.338;2023-01-26T08:22:00;100192.13;;;10.25;51.84
26859;BME280;14429;48.346;16.338;2023-01-26T08:24:26;100188.16;;;10.32;51.43
26859;BME280;14429;48.346;16.338;2023-01-26T08:26:52;100192.13;;;10.25;51.61
26859;BME280;14429;48.346;16.338;2023-01-26T08:29:17;100191.22;;;10.11;52.21
26859;BME280;14429;48.346;16.338;2023-01-26T08:31:43;100191.88;;;9.70;50.72
26859;BME280;14429;48.346;16.338;2023-01-26T08:34:08;100182.66;;;10.06;53.00
26859;BME280;14429;48.346;16.338;2023-01-26T08:36:34;100180.41;;;10.14;52.89
26859;BME280;14429;48.346;16.338;2023-01-26T08:38:59;100183.91;;;10.14;52.74
26859;BME280;14429;48.346;16.338;2023-01-26T08:41:26;100178.63;;;10.28;52.10
26859;BME280;14429;48.346;16.338;2023-01-26T08:43:51;100188.22;;;10.30;51.91
26859;BME280;14429;48.346;16.338;2023-01-26T08:46:17;100188.06;;;10.33;51.49
26859;BME280;14429;48.346;16.338;2023-01-26T08:48:42;100183.97;;;10.28;51.40
26859;BME280;14429;48.346;16.338;2023-01-26T08:51:07;100187.78;;;10.38;51.26
26859;BME280;14429;48.346;16.338;2023-01-26T08:53:34;100186.41;;;10.31;51.60
26859;BME280;14429;48.346;16.338;2023-01-26T08:56:00;100180.34;;;10.29;51.70
26859;BME280;14429;48.346;16.338;2023-01-26T08:58:27;100190.66;;;10.06;51.92
26859;BME280;14429;48.346;16.338;2023-01-26T09:00:53;100187.25;;;10.18;51.92
26859;BME280;14429;48.346;16.338;2023-01-26T09:03:18;100186.88;;;10.10;52.43
26859;BME280;14429;48.346;16.338;2023-01-26T09:05:44;100180.03;;;9.91;52.59
26859;BME280;14429;48.346;16.338;2023-01-26T09:08:09;100179.78;;;9.80;52.72
26859;BME280;14429;48.346;16.338;2023-01-26T09:10:36;100181.31;;;9.99;53.46
26859;BME280;14429;48.346;16.338;2023-01-26T09:13:01;100180.84;;;10.06;53.03
26859;BME280;14429;48.346;16.338;2023-01-26T09:15:28;100178.22;;;10.20;52.23
26859;BME280;14429;48.346;16.338;2023-01-26T09:17:54;100181.81;;;10.05;52.18
26859;BME280;14429;48.346;16.338;2023-01-26T09:20:19;100186.97;;;9.78;52.29
26859;BME280;14429;48.346;16.338;2023-01-26T09:22:45;100184.25;;;10.08;51.82
26859;BME280;14429;48.346;16.338;2023-01-26T09:25:11;100193.63;;;10.15;51.80
26859;BME280;14429;48.346;16.338;2023-01-26T09:27:36;100191.84;;;10.00;51.77
26859;BME280;14429;48.346;16.338;2023-01-26T09:30:02;100190.94;;;9.71;52.72
26859;BME280;14429;48.346;16.338;2023-01-26T09:32:30;100190.72;;;10.04;52.23
26859;BME280;14429;48.346;16.338;2023-01-26T09:34:55;100184.25;;;9.79;52.07
26859;BME280;14429;48.346;16.338;2023-01-26T09:37:21;100186.28;;;9.90;53.00
26859;BME280;14429;48.346;16.338;2023-01-26T09:39:47;100184.41;;;9.92;53.11
26859;BME280;14429;48.346;16.338;2023-01-26T09:42:28;100181.50;;;9.66;51.49
26859;BME280;14429;48.346;16.338;2023-01-26T09:45:02;100180.63;;;9.96;53.52
26859;BME280;14429;48.346;16.338;2023-01-26T09:47:42;100174.97;;;9.86;53.14
26859;BME280;14429;48.346;16.338;2023-01-26T09:50:16;100174.63;;;9.77;53.16
26859;BME280;14429;48.346;16.338;2023-01-26T09:52:49;100185.53;;;9.88;53.08
26859;BME280;14429;48.346;16.338;2023-01-26T09:55:20;100173.81;;;9.46;53.66
26859;BME280;14429;48.346;16.338;2023-01-26T09:57:48;100172.53;;;9.82;52.82
26859;BME280;14429;48.346;16.338;2023-01-26T10:00:18;100173.59;;;9.95;52.33
26859;BME280;14429;48.346;16.338;2023-01-26T10:02:54;100174.44;;;9.80;53.19
26859;BME280;14429;48.346;16.338;2023-01-26T10:05:29;100169.28;;;9.92;52.85
26859;BME280;14429;48.346;16.338;2023-01-26T10:07:57;100163.44;;;9.86;52.79
26859;BME280;14429;48.346;16.338;2023-01-26T10:10:27;100171.28;;;9.89;53.15
26859;BME280;14429;48.346;16.338;2023-01-26T10:12:54;100167.03;;;9.85;53.41
26859;BME280;14429;48.346;16.338;2023-01-26T10:15:28;100162.75;;;9.82;53.59
26859;BME280;14429;48.346;16.338;2023-01-26T10:17:57;100151.91;;;9.85;53.64
26859;BME280;14429;48.346;16.338;2023-01-26T10:20:28;100150.78;;;8.99;54.22
26859;BME280;14429;48.346;16.338;2023-01-26T10:22:58;100156.28;;;9.57;53.96
26859;BME280;14429;48.346;16.338;2023-01-26T10:25:29;100152.50;;;9.61;53.49
26859;BME280;14429;48.346;16.338;2023-01-26T10:27:57;100152.06;;;9.97;52.52
26859;BME280;14429;48.346;16.338;2023-01-26T10:30:22;100136.91;;;10.13;51.80
26859;BME280;14429;48.346;16.338;2023-01-26T10:32:50;100144.13;;;10.11;51.99
26859;BME280;14429;48.346;16.338;2023-01-26T10:35:19;100133.38;;;9.99;52.02
26859;BME280;14429;48.346;16.338;2023-01-26T10:37:46;100138.59;;;10.00;52.56
26859;BME280;14429;48.346;16.338;2023-01-26T10:40:12;100141.66;;;9.64;52.58
26859;BME280;14429;48.346;16.338;2023-01-26T10:42:38;100132.91;;;9.62;52.57
26859;BME280;14429;48.346;16.338;2023-01-26T10:45:06;100126.25;;;9.84;53.17
26859;BME280;14429;48.346;16.338;2023-01-26T10:47:32;100122.72;;;9.84;53.44
26859;BME280;14429;48.346;16.338;2023-01-26T10:50:20;100124.72;;;9.21;55.22
26859;BME280;14429;48.346;16.338;2023-01-26T10:52:56;100118.47;;;9.66;54.29
26859;BME280;14429;48.346;16.338;2023-01-26T10:55:22;100117.84;;;9.92;53.55
26859;BME280;14429;48.346;16.338;2023-01-26T10:57:47;100108.81;;;9.79;53.41
26859;BME280;14429;48.346;16.338;2023-01-26T11:00:22;100104.25;;;9.81;53.02
26859;BME280;14429;48.346;16.338;2023-01-26T11:02:50;100105.47;;;10.04;52.31
26859;BME280;14429;48.346;16.338;2023-01-26T11:05:21;100105.13;;;10.10;51.76
26859;BME280;14429;48.346;16.338;2023-01-26T11:07:49;100113.03;;;10.12;51.96
26859;BME280;14429;48.346;16.338;2023-01-26T11:10:17;100099.63;;;10.13;52.50
26859;BME280;14429;48.346;16.338;2023-01-26T11:12:43;100101.50;;;10.11;52.16
26859;BME280;14429;48.346;16.338;2023-01-26T11:15:16;100109.97;;;10.04;52.04
26859;BME280;14429;48.346;16.338;2023-01-26T11:17:48;100106.53;;;9.73;52.88
26859;BME280;14429;48.346;16.338;2023-01-26T11:20:45;100095.22;;;9.10;53.55
26859;BME280;14429;48.346;16.338;2023-01-26T11:23:20;100091.28;;;9.02;54.07
26859;BME280;14429;48.346;16.338;2023-01-26T11:25:49;100091.09;;;9.20;55.34
26859;BME280;14429;48.346;16.338;2023-01-26T11:28:31;100090.34;;;9.47;54.92
26859;BME280;14429;48.346;16.338;2023-01-26T11:31:09;100077.13;;;9.45;52.88
26859;BME280;14429;48.346;16.338;2023-01-26T11:33:44;100074.44;;;9.90;53.07
26859;BME280;14429;48.346;16.338;2023-01-26T11:36:24;100066.53;;;9.15;53.39
26859;BME280;14429;48.346;16.338;2023-01-26T11:38:59;100065.69;;;8.99;53.34
26859;BME280;14429;48.346;16.338;2023-01-26T11:41:36;100062.19;;;8.99;54.95
26859;BME280;14429;48.346;16.338;2023-01-26T11:44:20;100064.00;;;8.68;54.97
26859;BME280;14429;48.346;16.338;2023-01-26T11:47:13;100061.19;;;9.30;54.69
26859;BME280;14429;48.346;16.338;2023-01-26T11:50:14;100055.91;;;9.15;54.43
26859;BME280;14429;48.346;16.338;2023-01-26T11:52:53;100052.94;;;8.75;54.56
26859;BME280;14429;48.346;16.338;2023-01-26T11:55:29;100053.78;;;8.61;55.54
26859;BME280;14429;48.346;16.338;2023-01-26T11:58:14;100044.84;;;9.07;55.64
26859;BME280;14429;48.346;16.338;2023-01-26T12:00:48;100037.59;;;8.65;54.54
26859;BME280;14429;48.346;16.338;2023-01-26T12:03:18;100041.06;;;9.11;55.85
26859;BME280;14429;48.346;16.338;2023-01-26T12:05:47;100041.88;;;8.05;56.11
26859;BME280;14429;48.346;16.338;2023-01-26T12:08:20;100037.75;;;8.92;55.99
26859;BME280;14429;48.346;16.338;2023-01-26T12:10:50;100029.72;;;9.52;54.20
26859;BME280;14429;48.346;16.338;2023-01-26T12:13:27;100029.91;;;9.49;53.66
26859;BME280;14429;48.346;16.338;2023-01-26T12:15:58;100036.31;;;9.60;53.67
26859;BME280;14429;48.346;16.338;2023-01-26T12:18:30;100027.50;;;9.73;53.73
26859;BME280;14429;48.346;16.338;2023-01-26T12:21:02;100032.63;;;9.92;52.99
26859;BME280;14429;48.346;16.338;2023-01-26T12:23:35;100031.66;;;9.93;52.81
26859;BME280;14429;48.346;16.338;2023-01-26T12:26:07;100031.09;;;9.88;52.96
26859;BME280;14429;48.346;16.338;2023-01-26T12:28:40;100023.09;;;9.88;53.21
26859;BME280;14429;48.346;16.338;2023-01-26T12:31:13;100023.38;;;9.54;53.44
26859;BME280;14429;48.346;16.338;2023-01-26T12:33:41;100017.19;;;8.50;52.99
26859;BME280;14429;48.346;16.338;2023-01-26T12:36:15;100018.28;;;9.36;55.17
26859;BME280;14429;48.346;16.338;2023-01-26T12:38:59;100008.75;;;9.61;54.33
26859;BME280;14429;48.346;16.338;2023-01-26T12:41:40;100000.72;;;9.90;52.92
26859;BME280;14429;48.346;16.338;2023-01-26T12:44:16;100009.13;;;9.98;52.40
26859;BME280;14429;48.346;16.338;2023-01-26T12:46:51;99992.47;;;10.08;52.00
26859;BME280;14429;48.346;16.338;2023-01-26T12:49:21;100006.72;;;9.94;52.22